createdAt,value
2022-11-13T00:01:25.911Z,22.63
2022-11-13T00:03:53.113Z,24.55
2022-11-13T00:06:20.313Z,24.50
2022-11-13T00:08:48.413Z,24.73
2022-11-13T00:11:20.397Z,24.00
2022-11-13T00:13:48.795Z,24.90
2022-11-13T00:16:21.574Z,26.08
2022-11-13T00:18:49.022Z,25.30
2022-11-13T00:21:22.590Z,26.95
2022-11-13T00:23:50.840Z,25.88
2022-11-13T00:26:24.092Z,27.15
2022-11-13T00:29:02.739Z,26.35
2022-11-13T00:31:30.241Z,27.10
2022-11-13T00:34:33.589Z,24.95
2022-11-13T00:36:47.058Z,23.33
2022-11-13T00:39:14.213Z,23.40
2022-11-13T00:41:41.406Z,20.58
2022-11-13T00:44:08.562Z,19.60
2022-11-13T00:46:35.661Z,18.73
2022-11-13T00:49:02.842Z,19.20
2022-11-13T00:51:30.087Z,20.08
2022-11-13T00:53:57.187Z,19.48
2022-11-13T00:56:24.518Z,19.00
2022-11-13T00:58:51.605Z,19.83
2022-11-13T01:01:21.909Z,21.23
2022-11-13T01:03:49.418Z,20.52
2022-11-13T01:06:27.948Z,22.52
2022-11-13T01:08:57.314Z,20.63
2022-11-13T01:11:28.059Z,19.83
2022-11-13T01:13:55.926Z,19.63
2022-11-13T01:16:25.778Z,19.90
2022-11-13T01:18:56.979Z,21.33
2022-11-13T01:21:28.171Z,20.40
2022-11-13T01:23:56.345Z,21.67
2022-11-13T01:26:28.016Z,23.83
2022-11-13T01:28:58.107Z,23.42
2022-11-13T01:31:31.707Z,23.13
2022-11-13T01:33:59.461Z,22.40
2022-11-13T01:36:29.219Z,19.92
2022-11-13T01:38:56.701Z,22.63
2022-11-13T01:41:34.443Z,20.08
2022-11-13T01:44:02.140Z,19.85
2022-11-13T01:46:30.455Z,21.55
2022-11-13T01:49:11.925Z,21.35
2022-11-13T01:51:47.748Z,21.08
2022-11-13T01:56:46.170Z,22.13
2022-11-13T01:59:18.683Z,24.10
2022-11-13T02:01:46.274Z,23.20
2022-11-13T02:04:13.711Z,23.45
2022-11-13T02:06:55.599Z,23.40
2022-11-13T02:09:35.082Z,21.60
2022-11-13T02:12:02.471Z,25.77
2022-11-13T02:14:30.076Z,23.25
2022-11-13T02:17:02.762Z,23.10
2022-11-13T02:22:37.793Z,22.50
2022-11-13T02:25:06.797Z,22.38
2022-11-13T02:27:42.673Z,23.95
2022-11-13T02:32:46.641Z,22.83
2022-11-13T02:35:24.796Z,24.23
2022-11-13T02:37:51.939Z,24.35
2022-11-13T02:40:19.722Z,25.75
2022-11-13T02:42:49.928Z,25.98
2022-11-13T02:45:17.319Z,25.88
2022-11-13T02:47:44.828Z,27.55
2022-11-13T02:50:12.815Z,25.73
2022-11-13T02:52:40.066Z,24.10
2022-11-13T02:55:07.829Z,28.35
2022-11-13T02:57:35.187Z,26.95
2022-11-13T03:00:03.444Z,26.45
2022-11-13T03:02:30.505Z,25.45
2022-11-13T03:05:14.016Z,27.25
2022-11-13T03:07:42.095Z,27.48
2022-11-13T03:10:10.624Z,30.13
2022-11-13T03:12:38.606Z,28.05
2022-11-13T03:15:08.025Z,27.48
2022-11-13T03:17:35.983Z,28.30
2022-11-13T03:20:04.681Z,26.50
2022-11-13T03:22:32.330Z,28.20
2022-11-13T03:24:59.589Z,29.90
2022-11-13T03:27:26.672Z,28.15
2022-11-13T03:29:53.717Z,27.38
2022-11-13T03:32:20.881Z,29.63
2022-11-13T03:34:47.930Z,29.00
2022-11-13T03:37:15.100Z,29.38
2022-11-13T03:39:42.131Z,28.63
2022-11-13T03:42:09.200Z,30.00
2022-11-13T03:44:36.215Z,31.50
2022-11-13T03:47:03.303Z,28.00
2022-11-13T03:49:30.388Z,30.67
2022-11-13T03:51:57.454Z,29.25
2022-11-13T03:54:24.546Z,32.50
2022-11-13T03:56:51.578Z,31.33
2022-11-13T03:59:18.649Z,31.85
2022-11-13T04:01:45.715Z,34.97
2022-11-13T04:04:13.000Z,34.53
2022-11-13T04:06:40.185Z,32.60
2022-11-13T04:09:08.018Z,33.72
2022-11-13T04:11:35.078Z,30.27
2022-11-13T04:14:02.125Z,34.17
2022-11-13T04:16:29.221Z,33.95
2022-11-13T04:18:56.282Z,32.45
2022-11-13T04:21:23.381Z,36.80
2022-11-13T04:23:50.498Z,33.60
2022-11-13T04:26:17.564Z,36.92
2022-11-13T04:28:44.705Z,34.75
2022-11-13T04:31:11.735Z,35.38
2022-11-13T04:33:38.831Z,33.75
2022-11-13T04:36:06.432Z,34.40
2022-11-13T04:38:33.689Z,39.33
2022-11-13T04:41:19.192Z,36.97
2022-11-13T04:43:46.312Z,39.13
2022-11-13T04:46:13.375Z,37.28
2022-11-13T04:48:40.448Z,40.72
2022-11-13T04:51:07.554Z,38.08
2022-11-13T04:53:34.821Z,38.22
2022-11-13T04:56:01.945Z,37.95
2022-11-13T04:58:29.404Z,37.00
2022-11-13T05:00:56.721Z,37.40
2022-11-13T05:03:23.853Z,38.38
2022-11-13T05:05:50.939Z,37.20
2022-11-13T05:08:18.068Z,37.15
2022-11-13T05:10:45.151Z,36.28
2022-11-13T05:13:12.208Z,35.35
2022-11-13T05:15:39.235Z,34.72
2022-11-13T05:18:06.318Z,35.85
2022-11-13T05:20:33.372Z,39.25
2022-11-13T05:23:00.421Z,36.08
2022-11-13T05:25:27.769Z,35.95
2022-11-13T05:27:57.245Z,34.45
2022-11-13T05:30:25.358Z,35.15
2022-11-13T05:32:53.117Z,35.53
2022-11-13T05:35:20.530Z,33.30
2022-11-13T05:37:47.598Z,32.88
2022-11-13T05:40:14.890Z,31.85
2022-11-13T05:42:41.931Z,31.45
2022-11-13T05:45:09.851Z,31.30
2022-11-13T05:47:36.948Z,31.77
2022-11-13T05:50:04.602Z,31.20
2022-11-13T05:52:31.652Z,29.70
2022-11-13T05:54:58.673Z,30.50
2022-11-13T05:57:25.733Z,31.48
2022-11-13T05:59:52.803Z,31.00
2022-11-13T06:02:19.927Z,33.63
2022-11-13T06:04:50.639Z,33.35
2022-11-13T06:07:18.786Z,31.00
2022-11-13T06:09:45.800Z,31.00
2022-11-13T06:12:12.868Z,32.17
2022-11-13T06:14:39.868Z,31.15
2022-11-13T06:17:06.934Z,32.58
2022-11-13T06:19:33.978Z,31.27
2022-11-13T06:22:03.650Z,33.28
2022-11-13T06:24:30.710Z,33.28
2022-11-13T06:26:57.798Z,34.30
2022-11-13T06:29:24.930Z,32.78
2022-11-13T06:31:52.081Z,31.92
2022-11-13T06:34:19.179Z,31.80
2022-11-13T06:36:46.305Z,31.30
2022-11-13T06:39:13.784Z,30.60
2022-11-13T06:41:41.012Z,32.75
2022-11-13T06:44:08.315Z,30.42
2022-11-13T06:46:35.837Z,30.83
2022-11-13T06:49:03.130Z,30.15
2022-11-13T06:51:31.457Z,30.30
2022-11-13T06:53:58.939Z,31.13
2022-11-13T06:56:26.559Z,31.17
2022-11-13T06:58:55.941Z,29.65
2022-11-13T07:01:25.606Z,32.35
2022-11-13T07:03:53.205Z,32.22
2022-11-13T07:06:24.258Z,31.65
2022-11-13T07:08:52.545Z,29.98
2022-11-13T07:11:22.613Z,29.77
2022-11-13T07:13:50.300Z,31.05
2022-11-13T07:16:18.421Z,31.23
2022-11-13T07:18:53.247Z,30.17
2022-11-13T07:21:21.781Z,27.00
2022-11-13T07:23:50.744Z,29.40
2022-11-13T07:26:18.573Z,29.30
2022-11-13T07:28:46.953Z,27.88
2022-11-13T07:31:16.984Z,29.95
2022-11-13T07:33:44.528Z,29.83
2022-11-13T07:36:11.606Z,27.38
2022-11-13T07:38:38.688Z,26.10
2022-11-13T07:41:06.603Z,27.58
2022-11-13T07:43:34.453Z,25.13
2022-11-13T07:46:02.062Z,24.80
2022-11-13T07:48:30.232Z,26.75
2022-11-13T07:51:02.570Z,25.33
2022-11-13T07:53:30.324Z,24.90
2022-11-13T07:56:01.846Z,25.17
2022-11-13T07:58:29.309Z,24.73
2022-11-13T08:01:05.563Z,24.60
2022-11-13T08:03:33.154Z,24.17
2022-11-13T08:06:08.287Z,24.00
2022-11-13T08:08:36.172Z,22.65
2022-11-13T08:11:08.984Z,24.60
2022-11-13T08:13:37.115Z,24.42
2022-11-13T08:16:04.676Z,23.42
2022-11-13T08:18:32.807Z,24.23
2022-11-13T08:21:02.995Z,22.05
2022-11-13T08:23:31.124Z,22.60
2022-11-13T08:25:58.924Z,23.25
2022-11-13T08:28:26.237Z,22.65
2022-11-13T08:30:53.576Z,23.90
2022-11-13T08:33:20.650Z,22.25
2022-11-13T08:35:59.917Z,23.77
2022-11-13T08:38:27.859Z,22.42
2022-11-13T08:41:08.355Z,23.33
2022-11-13T08:43:36.402Z,25.02
2022-11-13T08:46:03.780Z,24.95
2022-11-13T08:48:31.292Z,23.90
2022-11-13T08:50:58.882Z,23.92
2022-11-13T08:53:26.480Z,24.33
2022-11-13T08:55:53.565Z,25.35
2022-11-13T08:58:20.701Z,25.30
2022-11-13T09:00:48.267Z,24.15
2022-11-13T09:03:15.304Z,24.52
2022-11-13T09:05:42.414Z,24.48
2022-11-13T09:08:10.765Z,25.00
2022-11-13T09:10:37.847Z,23.90
2022-11-13T09:13:08.818Z,26.60
2022-11-13T09:15:39.257Z,24.90
2022-11-13T09:18:06.718Z,26.02
2022-11-13T09:20:34.389Z,29.70
2022-11-13T09:23:08.015Z,27.05
2022-11-13T09:25:38.011Z,25.02
2022-11-13T09:28:07.008Z,26.15
2022-11-13T09:30:34.179Z,26.27
2022-11-13T09:33:02.531Z,25.38
2022-11-13T09:35:34.869Z,25.73
2022-11-13T09:38:13.364Z,24.48
2022-11-13T09:40:58.325Z,24.30
2022-11-13T09:43:40.647Z,23.25
2022-11-13T09:46:33.550Z,24.92
2022-11-13T09:49:35.782Z,23.00
2022-11-13T09:52:14.489Z,26.25
2022-11-13T09:54:41.717Z,23.55
2022-11-13T09:57:44.294Z,23.45
2022-11-13T10:00:19.291Z,24.60
2022-11-13T10:03:01.225Z,24.92
2022-11-13T10:06:08.627Z,23.15
2022-11-13T10:09:18.813Z,26.65
2022-11-13T10:12:03.092Z,24.40
2022-11-13T10:14:55.210Z,24.73
2022-11-13T10:17:33.189Z,23.92
2022-11-13T10:20:06.262Z,25.48
2022-11-13T10:22:50.882Z,23.75
2022-11-13T10:25:31.345Z,22.98
2022-11-13T10:28:15.888Z,23.85
2022-11-13T10:30:50.109Z,22.02
2022-11-13T10:33:23.790Z,22.35
2022-11-13T10:36:36.331Z,21.75
2022-11-13T10:39:09.092Z,22.90
2022-11-13T10:41:55.903Z,22.52
2022-11-13T10:44:33.785Z,21.40
2022-11-13T10:47:15.884Z,20.60
2022-11-13T10:49:43.008Z,20.65
2022-11-13T10:52:23.269Z,20.70
2022-11-13T10:54:51.750Z,20.48
2022-11-13T10:57:30.547Z,21.23
2022-11-13T10:59:57.678Z,20.30
2022-11-13T11:02:27.609Z,18.95
2022-11-13T11:05:23.732Z,18.85
2022-11-13T11:07:51.999Z,21.20
2022-11-13T11:10:57.416Z,19.38
2022-11-13T11:13:25.304Z,20.55
2022-11-13T11:15:59.638Z,18.40
2022-11-13T11:18:52.905Z,17.42
2022-11-13T11:21:29.148Z,18.92
2022-11-13T11:24:14.675Z,18.08
2022-11-13T11:26:59.743Z,18.98
2022-11-13T11:29:41.798Z,18.33
2022-11-13T11:32:29.730Z,18.42
2022-11-13T11:35:29.767Z,19.60
2022-11-13T11:38:12.019Z,18.92
2022-11-13T11:40:45.138Z,17.85
2022-11-13T11:43:45.668Z,17.73
2022-11-13T11:46:23.657Z,16.88
2022-11-13T11:48:51.826Z,17.50
2022-11-13T11:51:43.880Z,17.10
2022-11-13T11:54:41.261Z,18.73
2022-11-13T11:58:02.721Z,16.83
2022-11-13T12:00:33.480Z,16.67
2022-11-13T12:03:21.621Z,17.02
2022-11-13T12:06:07.693Z,17.67
2022-11-13T12:09:27.944Z,19.05
2022-11-13T12:12:24.143Z,17.60
2022-11-13T12:15:39.779Z,18.90
2022-11-13T12:18:40.961Z,17.83
2022-11-13T12:21:24.082Z,17.40
2022-11-13T12:24:18.954Z,19.35
2022-11-13T12:27:29.808Z,18.48
2022-11-13T12:30:14.217Z,18.83
2022-11-13T12:33:03.730Z,19.80
2022-11-13T12:35:31.205Z,19.25
2022-11-13T12:38:35.068Z,18.75
2022-11-13T12:41:59.264Z,17.52
2022-11-13T12:44:28.952Z,17.30
2022-11-13T12:47:01.681Z,18.92
2022-11-13T12:49:35.638Z,19.05
2022-11-13T12:52:15.941Z,18.55
2022-11-13T12:54:43.405Z,19.02
2022-11-13T12:57:13.015Z,19.65
2022-11-13T12:59:47.491Z,18.95
2022-11-13T13:02:14.499Z,19.00
2022-11-13T13:05:07.793Z,19.95
2022-11-13T13:08:09.785Z,32.88
2022-11-13T13:11:16.510Z,18.83
2022-11-13T13:14:00.734Z,18.02
2022-11-13T13:16:29.816Z,19.80
2022-11-13T13:19:25.801Z,20.48
2022-11-13T13:21:52.942Z,20.80
2022-11-13T13:24:38.108Z,18.85
2022-11-13T13:27:30.210Z,20.95
2022-11-13T13:29:58.935Z,20.63
2022-11-13T13:32:32.698Z,20.15
2022-11-13T13:35:15.502Z,21.20
2022-11-13T13:38:31.899Z,19.85
2022-11-13T13:41:29.835Z,21.90
2022-11-13T13:44:31.378Z,22.90
2022-11-13T13:46:59.042Z,20.48
2022-11-13T13:49:28.559Z,21.73
2022-11-13T13:51:58.244Z,22.83
2022-11-13T13:54:32.884Z,23.30
2022-11-13T13:57:00.191Z,23.35
2022-11-13T13:59:37.715Z,23.75
2022-11-13T14:02:18.860Z,23.30
2022-11-13T14:04:49.438Z,23.85
2022-11-13T14:07:30.785Z,23.35
2022-11-13T14:10:09.290Z,24.13
2022-11-13T14:12:41.044Z,23.17
2022-11-13T14:15:29.987Z,24.63
2022-11-13T14:18:06.137Z,24.13
2022-11-13T14:20:55.995Z,23.27
2022-11-13T14:23:28.065Z,22.88
2022-11-13T14:25:56.919Z,24.13
2022-11-13T14:28:31.516Z,25.00
2022-11-13T14:31:10.119Z,23.63
2022-11-13T14:33:49.884Z,23.20
2022-11-13T14:36:31.893Z,24.67
2022-11-13T14:39:00.026Z,25.88
2022-11-13T14:41:50.656Z,24.23
2022-11-13T14:44:30.906Z,25.88
2022-11-13T14:47:06.416Z,25.25
2022-11-13T14:49:37.149Z,24.95
2022-11-13T14:52:07.508Z,28.45
2022-11-13T14:55:08.041Z,27.17
2022-11-13T14:57:25.362Z,25.70
2022-11-13T14:59:52.477Z,24.58
2022-11-13T15:02:20.704Z,26.80
2022-11-13T15:04:48.233Z,26.38
2022-11-13T15:07:30.475Z,28.65
2022-11-13T15:09:58.865Z,26.77
2022-11-13T15:12:26.986Z,27.65
2022-11-13T15:14:54.424Z,25.38
2022-11-13T15:17:23.305Z,28.52
2022-11-13T15:19:56.735Z,26.80
2022-11-13T15:22:27.653Z,25.95
2022-11-13T15:24:56.461Z,27.38
2022-11-13T15:27:23.993Z,27.13
2022-11-13T15:29:51.391Z,26.65
2022-11-13T15:32:18.764Z,27.48
2022-11-13T15:34:47.470Z,27.30
2022-11-13T15:37:19.866Z,26.10
2022-11-13T15:39:48.190Z,28.48
2022-11-13T15:42:18.807Z,26.00
2022-11-13T15:44:46.418Z,25.85
2022-11-13T15:47:36.405Z,27.85
2022-11-13T15:50:15.164Z,25.27
2022-11-13T15:52:51.497Z,27.25
2022-11-13T15:55:31.561Z,26.77
2022-11-13T15:58:02.691Z,27.92
2022-11-13T16:00:30.059Z,27.63
2022-11-13T16:02:58.500Z,28.33
2022-11-13T16:05:29.883Z,29.10
2022-11-13T16:07:57.674Z,29.08
2022-11-13T16:10:25.771Z,28.30
2022-11-13T16:12:54.084Z,28.73
2022-11-13T16:15:21.944Z,30.40
2022-11-13T16:17:54.942Z,30.13
2022-11-13T16:20:22.102Z,29.50
2022-11-13T16:22:49.982Z,29.38
2022-11-13T16:25:20.841Z,30.77
2022-11-13T16:27:48.727Z,32.15
2022-11-13T16:30:24.016Z,30.35
2022-11-13T16:32:51.688Z,31.42
2022-11-13T16:35:21.883Z,32.90
2022-11-13T16:37:49.231Z,33.60
2022-11-13T16:40:23.040Z,32.17
2022-11-13T16:42:50.566Z,30.27
2022-11-13T16:45:20.330Z,30.77
2022-11-13T16:47:53.369Z,30.75
2022-11-13T16:50:27.604Z,30.75
2022-11-13T16:52:56.666Z,33.05
2022-11-13T16:55:26.092Z,31.52
2022-11-13T16:57:54.117Z,30.25
2022-11-13T17:00:22.441Z,32.38
2022-11-13T17:02:55.041Z,31.25
2022-11-13T17:05:24.604Z,30.60
2022-11-13T17:07:59.702Z,31.70
2022-11-13T17:10:31.990Z,29.98
2022-11-13T17:13:01.356Z,32.83
2022-11-13T17:15:29.058Z,32.25
2022-11-13T17:18:00.609Z,31.08
2022-11-13T17:20:28.206Z,31.90
2022-11-13T17:22:56.203Z,32.60
2022-11-13T17:25:26.628Z,31.55
2022-11-13T17:27:54.851Z,33.10
2022-11-13T17:30:22.796Z,31.73
2022-11-13T17:32:53.410Z,32.95
2022-11-13T17:35:21.329Z,34.10
2022-11-13T17:37:49.038Z,31.05
2022-11-13T17:40:16.973Z,30.15
2022-11-13T17:42:45.566Z,30.38
2022-11-13T17:45:14.631Z,31.33
2022-11-13T17:47:43.437Z,31.88
2022-11-13T17:50:11.305Z,31.77
2022-11-13T17:52:41.358Z,33.30
2022-11-13T17:55:12.357Z,32.30
2022-11-13T17:57:40.045Z,32.05
2022-11-13T18:00:08.746Z,31.80
2022-11-13T18:02:37.856Z,31.00
2022-11-13T18:05:15.557Z,32.45
2022-11-13T18:07:47.656Z,31.13
2022-11-13T18:10:15.661Z,30.27
2022-11-13T18:12:46.224Z,29.35
2022-11-13T18:15:14.569Z,29.73
2022-11-13T18:17:50.731Z,28.65
2022-11-13T18:20:20.244Z,28.17
2022-11-13T18:22:50.418Z,26.92
2022-11-13T18:25:18.947Z,30.38
2022-11-13T18:27:46.800Z,28.35
2022-11-13T18:30:15.222Z,27.27
2022-11-13T18:32:43.932Z,28.95
2022-11-13T18:35:12.239Z,27.58
2022-11-13T18:37:40.425Z,27.52
2022-11-13T18:40:10.049Z,26.02
2022-11-13T18:42:37.711Z,26.27
2022-11-13T18:45:06.635Z,28.08
2022-11-13T18:47:34.767Z,27.13
2022-11-13T18:50:02.439Z,26.88
2022-11-13T18:52:30.994Z,27.30
2022-11-13T18:54:59.022Z,27.33
2022-11-13T18:57:27.715Z,27.08
2022-11-13T18:59:55.793Z,26.50
2022-11-13T19:02:24.576Z,28.73
2022-11-13T19:04:53.767Z,26.67
2022-11-13T19:07:22.850Z,27.27
2022-11-13T19:09:51.742Z,28.17
2022-11-13T19:12:21.352Z,30.05
2022-11-13T19:14:49.427Z,31.95
2022-11-13T19:17:17.258Z,31.55
2022-11-13T19:19:45.229Z,28.98
2022-11-13T19:22:14.205Z,29.85
2022-11-13T19:24:42.116Z,30.02
2022-11-13T19:27:09.869Z,28.55
2022-11-13T19:29:38.053Z,30.65
2022-11-13T19:32:06.560Z,29.17
2022-11-13T19:34:35.292Z,28.33
2022-11-13T19:37:05.106Z,27.33
2022-11-13T19:39:39.994Z,27.13
2022-11-13T19:42:08.235Z,27.53
2022-11-13T19:44:36.429Z,29.08
2022-11-13T19:47:04.498Z,27.85
2022-11-13T19:49:32.429Z,27.95
2022-11-13T19:52:00.591Z,28.02
2022-11-13T19:54:28.418Z,28.45
2022-11-13T19:56:56.526Z,27.90
2022-11-13T19:59:24.462Z,28.05
2022-11-13T20:01:52.958Z,28.77
2022-11-13T20:04:25.036Z,27.67
2022-11-13T20:06:58.282Z,28.20
2022-11-13T20:09:29.888Z,27.23
2022-11-13T20:11:59.159Z,28.45
2022-11-13T20:14:26.719Z,29.00
2022-11-13T20:16:54.614Z,28.95
2022-11-13T20:19:22.212Z,29.40
2022-11-13T20:21:49.964Z,30.20
2022-11-13T20:24:17.608Z,30.73
2022-11-13T20:26:49.735Z,31.63
2022-11-13T20:29:20.341Z,29.83
2022-11-13T20:31:48.424Z,29.10
2022-11-13T20:34:16.220Z,32.10
2022-11-13T20:36:52.406Z,32.22
2022-11-13T20:39:20.599Z,30.77
2022-11-13T20:41:49.930Z,30.70
2022-11-13T20:44:19.609Z,30.25
2022-11-13T20:46:48.573Z,32.40
2022-11-13T20:49:16.143Z,32.22
2022-11-13T20:51:43.893Z,31.63
2022-11-13T20:54:14.617Z,32.75
2022-11-13T20:56:42.643Z,32.50
2022-11-13T20:59:10.501Z,30.55
2022-11-13T21:01:38.131Z,33.50
2022-11-13T21:04:05.697Z,31.90
2022-11-13T21:06:34.642Z,33.17
2022-11-13T21:09:02.013Z,30.80
2022-11-13T21:11:29.603Z,32.88
2022-11-13T21:13:58.638Z,30.17
2022-11-13T21:16:28.190Z,31.98
2022-11-13T21:19:00.154Z,31.98
2022-11-13T21:21:29.072Z,30.08
2022-11-13T21:23:58.208Z,30.33
2022-11-13T21:26:26.636Z,31.15
2022-11-13T21:28:57.904Z,31.48
2022-11-13T21:31:25.342Z,31.35
2022-11-13T21:33:54.066Z,31.13
2022-11-13T21:36:27.767Z,29.92
2022-11-13T21:38:56.729Z,30.23
2022-11-13T21:41:25.326Z,32.20
2022-11-13T21:44:02.097Z,29.08
2022-11-13T21:46:38.172Z,32.17
2022-11-13T21:49:10.753Z,31.42
2022-11-13T21:51:40.493Z,31.75
2022-11-13T21:54:08.655Z,30.98
2022-11-13T21:56:38.526Z,32.03
2022-11-13T21:59:06.941Z,30.60
2022-11-13T22:01:38.547Z,29.05
2022-11-13T22:04:06.812Z,30.73
2022-11-13T22:06:39.766Z,30.27
2022-11-13T22:09:17.309Z,30.85
2022-11-13T22:11:44.805Z,30.33
2022-11-13T22:14:11.962Z,29.08
2022-11-13T22:16:43.131Z,28.80
2022-11-13T22:19:18.141Z,28.55
2022-11-13T22:21:47.223Z,28.60
2022-11-13T22:24:15.290Z,29.48
2022-11-13T22:26:50.726Z,28.85
2022-11-13T22:29:17.911Z,27.15
2022-11-13T22:31:45.134Z,28.95
2022-11-13T22:34:12.239Z,28.58
2022-11-13T22:36:39.278Z,29.52
2022-11-13T22:39:06.638Z,29.63
2022-11-13T22:41:36.491Z,30.67
2022-11-13T22:44:10.525Z,29.98
2022-11-13T22:46:37.830Z,27.90
2022-11-13T22:49:06.789Z,29.90
2022-11-13T22:51:41.152Z,28.77
2022-11-13T22:54:11.800Z,26.63
2022-11-13T22:56:41.088Z,30.75
2022-11-13T22:59:11.443Z,29.52
2022-11-13T23:01:40.682Z,28.83
2022-11-13T23:04:12.188Z,28.08
2022-11-13T23:06:39.443Z,29.55
2022-11-13T23:09:07.172Z,30.80
2022-11-13T23:11:40.653Z,28.73
2022-11-13T23:14:12.231Z,28.58
2022-11-13T23:16:39.643Z,28.08
2022-11-13T23:19:06.936Z,29.85
2022-11-13T23:21:34.527Z,30.63
2022-11-13T23:24:01.728Z,30.02
2022-11-13T23:26:29.006Z,28.40
2022-11-13T23:28:57.178Z,30.40
2022-11-13T23:31:24.771Z,29.42
2022-11-13T23:33:51.861Z,29.27
2022-11-13T23:36:19.193Z,29.92
2022-11-13T23:38:46.279Z,33.38
2022-11-13T23:41:13.560Z,35.88
2022-11-13T23:44:07.595Z,31.70
2022-11-13T23:46:27.877Z,28.95
2022-11-13T23:48:54.988Z,27.30
2022-11-13T23:51:22.539Z,29.65
2022-11-13T23:53:49.590Z,29.73
2022-11-13T23:56:16.656Z,29.70
2022-11-13T23:58:43.709Z,28.80
